Relevés horaires Eggishorn (Suisse)


Relevés horaires à Eggishorn - Samedi 13 Juill. 2019
Heure UTC1 Température [°C] Vent [km/h] Hum. [%] Pres.4 [hPa] Visi. [Km] Nébu. [octa] Préc.5 [mm] Cond.
2m. Res. Ros. Dir.2 Vit. Moy. Raf.3
23:00 1.2 -0.5 -0.8 SSO 5.6 -- 18.5 86 700(-0.2/3h) -- -- -- --
22:00 2.4 -1.4 -2.3 OSO 14.8 -- 20.4 71 700(-0.1/3h) -- -- -- --
21:00 3.8 1 -1.4 OSO 11.1 -- 40.7 69 700(0.0/3h) -- -- -- --
20:00 3.2 0.7 -1.9 O 9.3 -- 31.5 69 700(0.2/3h) -- -- -- --
19:00 4.3 0.6 -4.2 NNO 16.7 -- 40.7 54 700(0.2/3h) -- -- -- --
18:00 4.8 1.2 -2.2 N 16.7 -- 50.0 60 700(0.1/3h) -- -- -- --
17:00 6.1 2.6 -4.0 NNO 18.5 -- 44.4 48 700(-0.1/3h) -- -- -- --
16:00 5.9 2.2 -3.5 NNO 20.4 -- 46.3 51 700(0.1/3h) -- -- -- --
15:00 6.7 3 -4.2 N 22.2 -- 50.0 46 700(0.3/3h) -- -- -- --
14:00 6.6 3 -3.9 NNO 20.4 -- 46.3 47 700(0.3/3h) -- -- -- --
13:00 6.6 2.8 -3.6 NNO 22.2 -- 42.6 48 700(0.2/3h) -- -- -- --
12:00 6.4 2.6 -4.2 N 22.2 -- 64.8 47 700(0.5/3h) -- -- -- --
11:00 5.8 2.8 -3.0 N 14.8 -- 46.3 53 700(0.7/3h) -- -- -- --
10:00 4.9 0.9 -0.3 NNO 20.4 -- 48.2 69 700(0.6/3h) -- -- -- --
09:00 3.7 -1.2 -2.7 N 25.9 -- 64.8 63 700(0.6/3h) -- -- -- --
08:00 2.8 -3.1 -3.0 NNO 33.3 -- 59.3 66 700(0.7/3h) -- -- -- --
07:00 2.4 -2 -0.1 NO 18.5 -- 42.6 84 700(0.7/3h) -- -- -- --
06:00 2.1 -1.8 -0.5 NO 14.8 -- 51.9 83 700(0.6/3h) -- -- -- --
05:00 1.8 -3.3 -1.1 NNO 22.2 -- 48.2 81 700(0.0/3h) -- -- -- --
05:00 1.8 -3.3 -1.1 NNO 22.2 -- 48.2 81 700(0.0/3h) -- -- -- --
04:00 1.5 -4.5 -0.1 NNO 29.6 -- 51.9 89 700(-0.5/3h) -- -- -- --
03:00 1.2 -4.5 -0.1 NNO 25.9 -- 51.9 91 700(-0.9/3h) -- -- -- --
02:00 2.3 -3.4 0.1 ONO 29.6 -- 48.2 85 700(-1.3/3h) -- -- -- --
02:00 2.3 -3.4 0.1 ONO 29.6 -- 48.2 85 700(-1.3/3h) -- -- -- --

1 Coordinated Universal Time. Actuellement il est 07:00 locale et 05:00 UTC.

2 Le vent souffle depuis la direction indiquée vers la direction oposée.

3 Les rafales max. sont disponible 40 min après l'heure du relevé.

4 Pour les stations d'altitude (plus de 600m) le géopotentiel du niveau le plus proche de la pression obligatoire est indiqué.

5 Les stations disposant d'un diffuseur peuvent indiquer "trace". Cela signifie que des précipitations ont touchés le sol mais que la quantité est inférieure à 0.1 mm.

Copyright

Les données affichées sur cette page sont la propriété exclusive de Météo Suisse.

Récapitulatif de la journée
Température [°C] Vent [km/h] Ensoleillement4 [h] Precipitations totale5 [mm] Pression [Hpa]
Min1 Max.2 Moy.3 Max. Min Max.
1.2 7.4 0 64.8 11 h 36 min 0 700.0 700.0

1 Température minimale relevée entre 18:00 UTC la veille et 18:00 UTC le jour donné.

2 Température maximale relevée entre 06:00 UTC le jour donné et 06:00 UTC le lendemain.

3 Vent moyen de la journée basé sur les relevés horaires.

4 Ensoleillement en heures relevé entre 06:00 UTC la veille et 06:00 UTC le jour donné.

5 Précipitations totales tombées entre 06:00 UTC la jour donné et 06:00 UTC le lendemain.

Graphiques horaires